sensor_id;sensor_type;location;lat;lon;timestamp;P1;durP1;ratioP1;P2;durP2;ratioP2
35977;SDS011;22056;0.000;0.000;2023-06-14T00:02:13;2.88;;;1.98;;
35977;SDS011;22056;0.000;0.000;2023-06-14T00:04:40;1.83;;;1.52;;
35977;SDS011;22056;0.000;0.000;2023-06-14T00:07:06;2.78;;;1.60;;
35977;SDS011;22056;0.000;0.000;2023-06-14T00:09:34;2.05;;;1.85;;
35977;SDS011;22056;0.000;0.000;2023-06-14T00:12:00;1.65;;;1.42;;
35977;SDS011;22056;0.000;0.000;2023-06-14T00:14:26;2.63;;;2.20;;
35977;SDS011;22056;0.000;0.000;2023-06-14T00:16:52;2.20;;;2.00;;
35977;SDS011;22056;0.000;0.000;2023-06-14T00:19:24;2.00;;;1.70;;
35977;SDS011;22056;0.000;0.000;2023-06-14T00:21:50;1.80;;;1.70;;
35977;SDS011;22056;0.000;0.000;2023-06-14T00:24:17;1.85;;;1.75;;
35977;SDS011;22056;0.000;0.000;2023-06-14T00:26:44;2.03;;;1.83;;
35977;SDS011;22056;0.000;0.000;2023-06-14T00:29:10;1.58;;;1.40;;
35977;SDS011;22056;0.000;0.000;2023-06-14T00:31:36;2.83;;;1.65;;
35977;SDS011;22056;0.000;0.000;2023-06-14T00:34:02;2.00;;;1.80;;
35977;SDS011;22056;0.000;0.000;2023-06-14T00:36:28;1.83;;;1.70;;
35977;SDS011;22056;0.000;0.000;2023-06-14T00:38:54;2.00;;;1.60;;
35977;SDS011;22056;0.000;0.000;2023-06-14T00:41:20;1.52;;;1.42;;
35977;SDS011;22056;0.000;0.000;2023-06-14T00:43:47;1.98;;;1.77;;
35977;SDS011;22056;0.000;0.000;2023-06-14T00:46:13;2.20;;;1.85;;
35977;SDS011;22056;0.000;0.000;2023-06-14T00:48:39;1.70;;;1.60;;
35977;SDS011;22056;0.000;0.000;2023-06-14T00:51:06;3.00;;;1.70;;
35977;SDS011;22056;0.000;0.000;2023-06-14T00:53:32;2.00;;;1.77;;
35977;SDS011;22056;0.000;0.000;2023-06-14T00:56:00;1.60;;;1.50;;
35977;SDS011;22056;0.000;0.000;2023-06-14T00:58:27;1.90;;;1.70;;
35977;SDS011;22056;0.000;0.000;2023-06-14T01:00:53;3.25;;;1.90;;
35977;SDS011;22056;0.000;0.000;2023-06-14T01:03:21;1.88;;;1.60;;
35977;SDS011;22056;0.000;0.000;2023-06-14T01:05:49;1.63;;;1.50;;
35977;SDS011;22056;0.000;0.000;2023-06-14T01:11:10;2.10;;;1.70;;
35977;SDS011;22056;0.000;0.000;2023-06-14T01:13:38;1.98;;;1.80;;
35977;SDS011;22056;0.000;0.000;2023-06-14T01:16:05;2.28;;;1.88;;
35977;SDS011;22056;0.000;0.000;2023-06-14T01:18:32;3.53;;;1.70;;
35977;SDS011;22056;0.000;0.000;2023-06-14T01:20:58;1.85;;;1.73;;
35977;SDS011;22056;0.000;0.000;2023-06-14T01:23:25;2.05;;;1.85;;
35977;SDS011;22056;0.000;0.000;2023-06-14T01:25:57;1.90;;;1.80;;
35977;SDS011;22056;0.000;0.000;2023-06-14T01:28:23;1.95;;;1.80;;
35977;SDS011;22056;0.000;0.000;2023-06-14T01:30:54;2.03;;;1.83;;
35977;SDS011;22056;0.000;0.000;2023-06-14T01:33:21;2.40;;;1.65;;
35977;SDS011;22056;0.000;0.000;2023-06-14T01:35:49;1.98;;;1.70;;
35977;SDS011;22056;0.000;0.000;2023-06-14T01:38:17;2.05;;;1.50;;
35977;SDS011;22056;0.000;0.000;2023-06-14T01:40:44;1.63;;;1.52;;
35977;SDS011;22056;0.000;0.000;2023-06-14T01:43:11;1.75;;;1.65;;
35977;SDS011;22056;0.000;0.000;2023-06-14T01:45:38;2.05;;;1.73;;
35977;SDS011;22056;0.000;0.000;2023-06-14T01:48:05;1.65;;;1.50;;
35977;SDS011;22056;0.000;0.000;2023-06-14T01:50:32;3.03;;;2.00;;
35977;SDS011;22056;0.000;0.000;2023-06-14T01:52:58;1.80;;;1.40;;
35977;SDS011;22056;0.000;0.000;2023-06-14T01:55:24;2.28;;;1.90;;
35977;SDS011;22056;0.000;0.000;2023-06-14T01:57:53;1.48;;;1.38;;
35977;SDS011;22056;0.000;0.000;2023-06-14T02:00:20;1.88;;;1.40;;
35977;SDS011;22056;0.000;0.000;2023-06-14T02:02:46;2.08;;;1.65;;
35977;SDS011;22056;0.000;0.000;2023-06-14T02:05:12;1.90;;;1.50;;
35977;SDS011;22056;0.000;0.000;2023-06-14T02:07:40;2.08;;;1.75;;
35977;SDS011;22056;0.000;0.000;2023-06-14T02:10:06;1.63;;;1.50;;
35977;SDS011;22056;0.000;0.000;2023-06-14T02:12:32;1.63;;;1.45;;
35977;SDS011;22056;0.000;0.000;2023-06-14T02:14:59;1.60;;;1.50;;
35977;SDS011;22056;0.000;0.000;2023-06-14T02:17:25;1.70;;;1.40;;
35977;SDS011;22056;0.000;0.000;2023-06-14T02:19:51;1.65;;;1.55;;
35977;SDS011;22056;0.000;0.000;2023-06-14T02:22:17;1.65;;;1.55;;
35977;SDS011;22056;0.000;0.000;2023-06-14T02:24:45;1.67;;;1.58;;
35977;SDS011;22056;0.000;0.000;2023-06-14T02:27:12;1.98;;;1.77;;
35977;SDS011;22056;0.000;0.000;2023-06-14T02:29:38;1.98;;;1.88;;
35977;SDS011;22056;0.000;0.000;2023-06-14T02:32:05;2.33;;;1.80;;
35977;SDS011;22056;0.000;0.000;2023-06-14T02:34:32;2.05;;;1.80;;
35977;SDS011;22056;0.000;0.000;2023-06-14T02:36:59;1.52;;;1.42;;
35977;SDS011;22056;0.000;0.000;2023-06-14T02:39:25;1.60;;;1.50;;
35977;SDS011;22056;0.000;0.000;2023-06-14T02:41:51;1.70;;;1.60;;
35977;SDS011;22056;0.000;0.000;2023-06-14T02:44:18;2.17;;;1.98;;
35977;SDS011;22056;0.000;0.000;2023-06-14T02:46:44;1.58;;;1.42;;
35977;SDS011;22056;0.000;0.000;2023-06-14T02:49:11;1.92;;;1.60;;
35977;SDS011;22056;0.000;0.000;2023-06-14T02:51:37;1.48;;;1.38;;
35977;SDS011;22056;0.000;0.000;2023-06-14T02:54:03;1.75;;;1.65;;
35977;SDS011;22056;0.000;0.000;2023-06-14T02:56:30;1.50;;;1.40;;
35977;SDS011;22056;0.000;0.000;2023-06-14T02:58:56;1.70;;;1.50;;
35977;SDS011;22056;0.000;0.000;2023-06-14T03:01:22;1.98;;;1.77;;
35977;SDS011;22056;0.000;0.000;2023-06-14T03:03:48;2.28;;;1.55;;
35977;SDS011;22056;0.000;0.000;2023-06-14T03:06:15;1.50;;;1.30;;
35977;SDS011;22056;0.000;0.000;2023-06-14T03:08:41;1.55;;;1.45;;
35977;SDS011;22056;0.000;0.000;2023-06-14T03:11:08;1.52;;;1.30;;
35977;SDS011;22056;0.000;0.000;2023-06-14T03:13:35;1.50;;;1.40;;
35977;SDS011;22056;0.000;0.000;2023-06-14T03:16:02;1.73;;;1.63;;
35977;SDS011;22056;0.000;0.000;2023-06-14T03:18:31;1.52;;;1.40;;
35977;SDS011;22056;0.000;0.000;2023-06-14T03:21:01;1.60;;;1.50;;
35977;SDS011;22056;0.000;0.000;2023-06-14T03:23:27;1.58;;;1.48;;
35977;SDS011;22056;0.000;0.000;2023-06-14T03:25:53;1.73;;;1.63;;
35977;SDS011;22056;0.000;0.000;2023-06-14T03:28:20;1.30;;;1.20;;
35977;SDS011;22056;0.000;0.000;2023-06-14T03:30:47;1.67;;;1.58;;
35977;SDS011;22056;0.000;0.000;2023-06-14T03:33:13;1.63;;;1.52;;
35977;SDS011;22056;0.000;0.000;2023-06-14T03:35:40;1.33;;;1.23;;
35977;SDS011;22056;0.000;0.000;2023-06-14T03:38:06;1.60;;;1.50;;
35977;SDS011;22056;0.000;0.000;2023-06-14T03:40:32;1.65;;;1.55;;
35977;SDS011;22056;0.000;0.000;2023-06-14T03:42:59;1.83;;;1.73;;
35977;SDS011;22056;0.000;0.000;2023-06-14T03:45:25;1.63;;;1.52;;
35977;SDS011;22056;0.000;0.000;2023-06-14T03:47:51;1.40;;;1.30;;
35977;SDS011;22056;0.000;0.000;2023-06-14T03:50:17;1.65;;;1.55;;
35977;SDS011;22056;0.000;0.000;2023-06-14T03:52:44;1.60;;;1.50;;
35977;SDS011;22056;0.000;0.000;2023-06-14T03:55:11;1.55;;;1.45;;
35977;SDS011;22056;0.000;0.000;2023-06-14T03:57:38;1.73;;;1.60;;
35977;SDS011;22056;0.000;0.000;2023-06-14T04:00:05;1.40;;;1.30;;
35977;SDS011;22056;0.000;0.000;2023-06-14T04:02:31;1.50;;;1.40;;
35977;SDS011;22056;0.000;0.000;2023-06-14T04:04:58;1.35;;;1.20;;
35977;SDS011;22056;0.000;0.000;2023-06-14T04:07:25;1.55;;;1.45;;
35977;SDS011;22056;0.000;0.000;2023-06-14T04:09:53;1.40;;;1.30;;
35977;SDS011;22056;0.000;0.000;2023-06-14T04:12:20;1.70;;;1.60;;
35977;SDS011;22056;0.000;0.000;2023-06-14T04:14:47;1.50;;;1.40;;
35977;SDS011;22056;0.000;0.000;2023-06-14T04:17:13;1.63;;;1.52;;
35977;SDS011;22056;0.000;0.000;2023-06-14T04:19:39;1.60;;;1.50;;
35977;SDS011;22056;0.000;0.000;2023-06-14T04:22:06;1.40;;;1.30;;
35977;SDS011;22056;0.000;0.000;2023-06-14T04:24:34;1.67;;;1.58;;
35977;SDS011;22056;0.000;0.000;2023-06-14T04:27:01;1.40;;;1.30;;
35977;SDS011;22056;0.000;0.000;2023-06-14T04:29:27;1.88;;;1.60;;
35977;SDS011;22056;0.000;0.000;2023-06-14T04:31:54;1.70;;;1.40;;
35977;SDS011;22056;0.000;0.000;2023-06-14T04:34:27;1.40;;;1.30;;
35977;SDS011;22056;0.000;0.000;2023-06-14T04:36:57;1.30;;;1.20;;
35977;SDS011;22056;0.000;0.000;2023-06-14T04:39:24;1.45;;;1.30;;
35977;SDS011;22056;0.000;0.000;2023-06-14T04:41:52;1.50;;;1.40;;
35977;SDS011;22056;0.000;0.000;2023-06-14T04:44:22;1.40;;;1.30;;
35977;SDS011;22056;0.000;0.000;2023-06-14T04:46:57;1.70;;;1.35;;
35977;SDS011;22056;0.000;0.000;2023-06-14T04:49:24;1.20;;;1.10;;
35977;SDS011;22056;0.000;0.000;2023-06-14T04:51:52;1.55;;;1.30;;
35977;SDS011;22056;0.000;0.000;2023-06-14T04:54:26;2.03;;;1.30;;
35977;SDS011;22056;0.000;0.000;2023-06-14T04:56:53;2.80;;;1.35;;
35977;SDS011;22056;0.000;0.000;2023-06-14T04:59:20;1.70;;;1.20;;
35977;SDS011;22056;0.000;0.000;2023-06-14T05:01:48;1.63;;;1.38;;
35977;SDS011;22056;0.000;0.000;2023-06-14T05:04:15;1.20;;;1.08;;
35977;SDS011;22056;0.000;0.000;2023-06-14T05:06:41;1.48;;;1.00;;
35977;SDS011;22056;0.000;0.000;2023-06-14T05:09:10;2.03;;;1.20;;
35977;SDS011;22056;0.000;0.000;2023-06-14T05:11:36;1.40;;;1.30;;
35977;SDS011;22056;0.000;0.000;2023-06-14T05:14:03;1.40;;;1.20;;
35977;SDS011;22056;0.000;0.000;2023-06-14T05:16:29;1.75;;;1.20;;
35977;SDS011;22056;0.000;0.000;2023-06-14T05:18:55;1.58;;;1.15;;
35977;SDS011;22056;0.000;0.000;2023-06-14T05:21:21;1.15;;;1.05;;
35977;SDS011;22056;0.000;0.000;2023-06-14T05:23:47;1.30;;;1.20;;
35977;SDS011;22056;0.000;0.000;2023-06-14T05:26:14;1.30;;;1.20;;
35977;SDS011;22056;0.000;0.000;2023-06-14T05:28:40;1.30;;;1.20;;
35977;SDS011;22056;0.000;0.000;2023-06-14T05:31:06;1.50;;;1.40;;
35977;SDS011;22056;0.000;0.000;2023-06-14T05:33:32;5.30;;;1.45;;
35977;SDS011;22056;0.000;0.000;2023-06-14T05:35:59;1.48;;;1.20;;
35977;SDS011;22056;0.000;0.000;2023-06-14T05:38:25;1.58;;;1.15;;
35977;SDS011;22056;0.000;0.000;2023-06-14T05:40:52;1.40;;;1.25;;
35977;SDS011;22056;0.000;0.000;2023-06-14T05:43:19;1.02;;;0.90;;
35977;SDS011;22056;0.000;0.000;2023-06-14T05:45:45;1.92;;;1.58;;
35977;SDS011;22056;0.000;0.000;2023-06-14T05:48:11;2.90;;;1.20;;
35977;SDS011;22056;0.000;0.000;2023-06-14T05:50:37;1.38;;;1.27;;
35977;SDS011;22056;0.000;0.000;2023-06-14T05:53:03;1.25;;;1.15;;
35977;SDS011;22056;0.000;0.000;2023-06-14T05:55:29;1.42;;;1.33;;
35977;SDS011;22056;0.000;0.000;2023-06-14T05:57:55;1.25;;;1.15;;
35977;SDS011;22056;0.000;0.000;2023-06-14T06:00:22;2.65;;;1.20;;
35977;SDS011;22056;0.000;0.000;2023-06-14T06:02:48;1.27;;;1.17;;
35977;SDS011;22056;0.000;0.000;2023-06-14T06:05:14;2.17;;;1.17;;
35977;SDS011;22056;0.000;0.000;2023-06-14T06:07:41;2.00;;;1.10;;
35977;SDS011;22056;0.000;0.000;2023-06-14T06:10:09;1.90;;;1.20;;
35977;SDS011;22056;0.000;0.000;2023-06-14T06:12:36;3.53;;;1.42;;
35977;SDS011;22056;0.000;0.000;2023-06-14T06:15:02;2.00;;;1.05;;
35977;SDS011;22056;0.000;0.000;2023-06-14T06:17:29;1.25;;;1.10;;
35977;SDS011;22056;0.000;0.000;2023-06-14T06:19:55;1.45;;;1.30;;
35977;SDS011;22056;0.000;0.000;2023-06-14T06:22:21;0.90;;;0.85;;
35977;SDS011;22056;0.000;0.000;2023-06-14T06:24:47;2.42;;;1.13;;
35977;SDS011;22056;0.000;0.000;2023-06-14T06:27:13;2.40;;;1.20;;
35977;SDS011;22056;0.000;0.000;2023-06-14T06:29:41;2.70;;;1.38;;
35977;SDS011;22056;0.000;0.000;2023-06-14T06:32:09;1.30;;;0.98;;
35977;SDS011;22056;0.000;0.000;2023-06-14T06:34:35;1.20;;;1.10;;
35977;SDS011;22056;0.000;0.000;2023-06-14T06:37:02;2.42;;;1.25;;
35977;SDS011;22056;0.000;0.000;2023-06-14T06:39:28;2.25;;;1.20;;
35977;SDS011;22056;0.000;0.000;2023-06-14T06:41:54;1.90;;;1.05;;
35977;SDS011;22056;0.000;0.000;2023-06-14T06:44:20;1.55;;;1.05;;
35977;SDS011;22056;0.000;0.000;2023-06-14T06:46:46;2.28;;;1.35;;
35977;SDS011;22056;0.000;0.000;2023-06-14T06:49:13;2.33;;;1.40;;
35977;SDS011;22056;0.000;0.000;2023-06-14T06:51:42;2.35;;;1.08;;
35977;SDS011;22056;0.000;0.000;2023-06-14T06:54:10;2.10;;;0.88;;
35977;SDS011;22056;0.000;0.000;2023-06-14T06:56:36;1.88;;;1.00;;
35977;SDS011;22056;0.000;0.000;2023-06-14T06:59:02;1.88;;;0.85;;
35977;SDS011;22056;0.000;0.000;2023-06-14T07:01:28;3.42;;;1.30;;
35977;SDS011;22056;0.000;0.000;2023-06-14T07:03:55;2.85;;;1.10;;
35977;SDS011;22056;0.000;0.000;2023-06-14T07:06:21;2.15;;;1.13;;
35977;SDS011;22056;0.000;0.000;2023-06-14T07:08:47;1.52;;;0.90;;
35977;SDS011;22056;0.000;0.000;2023-06-14T07:11:13;2.60;;;1.13;;
35977;SDS011;22056;0.000;0.000;2023-06-14T07:13:40;2.83;;;1.00;;
35977;SDS011;22056;0.000;0.000;2023-06-14T07:16:06;2.08;;;1.10;;
35977;SDS011;22056;0.000;0.000;2023-06-14T07:18:32;1.98;;;1.15;;
35977;SDS011;22056;0.000;0.000;2023-06-14T07:20:58;2.42;;;1.30;;
35977;SDS011;22056;0.000;0.000;2023-06-14T07:23:25;2.28;;;1.10;;
35977;SDS011;22056;0.000;0.000;2023-06-14T07:25:51;1.48;;;1.10;;
35977;SDS011;22056;0.000;0.000;2023-06-14T07:28:17;1.77;;;1.20;;
35977;SDS011;22056;0.000;0.000;2023-06-14T07:30:43;2.08;;;1.10;;
35977;SDS011;22056;0.000;0.000;2023-06-14T07:33:10;1.92;;;1.15;;
35977;SDS011;22056;0.000;0.000;2023-06-14T07:35:37;1.23;;;1.05;;
35977;SDS011;22056;0.000;0.000;2023-06-14T07:38:03;1.70;;;1.30;;
35977;SDS011;22056;0.000;0.000;2023-06-14T07:40:29;5.72;;;1.60;;
35977;SDS011;22056;0.000;0.000;2023-06-14T07:42:55;1.50;;;1.15;;
35977;SDS011;22056;0.000;0.000;2023-06-14T07:45:22;1.33;;;1.20;;
35977;SDS011;22056;0.000;0.000;2023-06-14T07:47:48;2.50;;;1.02;;
35977;SDS011;22056;0.000;0.000;2023-06-14T07:50:15;1.63;;;0.90;;
35977;SDS011;22056;0.000;0.000;2023-06-14T07:52:41;2.72;;;1.23;;
35977;SDS011;22056;0.000;0.000;2023-06-14T07:55:07;2.72;;;1.27;;
35977;SDS011;22056;0.000;0.000;2023-06-14T07:57:33;1.83;;;1.30;;
35977;SDS011;22056;0.000;0.000;2023-06-14T08:00:00;1.60;;;1.02;;
35977;SDS011;22056;0.000;0.000;2023-06-14T08:02:26;1.88;;;1.20;;
35977;SDS011;22056;0.000;0.000;2023-06-14T08:04:52;2.55;;;1.20;;
35977;SDS011;22056;0.000;0.000;2023-06-14T08:07:19;1.33;;;1.10;;
35977;SDS011;22056;0.000;0.000;2023-06-14T08:09:45;2.13;;;1.25;;
35977;SDS011;22056;0.000;0.000;2023-06-14T08:12:11;4.07;;;1.10;;
35977;SDS011;22056;0.000;0.000;2023-06-14T08:14:38;3.08;;;1.05;;
35977;SDS011;22056;0.000;0.000;2023-06-14T08:17:05;2.75;;;1.10;;
35977;SDS011;22056;0.000;0.000;2023-06-14T08:19:31;2.47;;;1.10;;
35977;SDS011;22056;0.000;0.000;2023-06-14T08:21:57;2.80;;;1.00;;
35977;SDS011;22056;0.000;0.000;2023-06-14T08:24:23;2.13;;;1.23;;
35977;SDS011;22056;0.000;0.000;2023-06-14T08:26:49;2.28;;;1.20;;
35977;SDS011;22056;0.000;0.000;2023-06-14T08:29:16;1.95;;;1.25;;
35977;SDS011;22056;0.000;0.000;2023-06-14T08:31:42;2.33;;;1.10;;
35977;SDS011;22056;0.000;0.000;2023-06-14T08:34:08;1.73;;;1.00;;
35977;SDS011;22056;0.000;0.000;2023-06-14T08:36:37;2.08;;;1.10;;
35977;SDS011;22056;0.000;0.000;2023-06-14T08:39:03;3.90;;;1.15;;
35977;SDS011;22056;0.000;0.000;2023-06-14T08:41:29;1.38;;;1.08;;
35977;SDS011;22056;0.000;0.000;2023-06-14T08:43:56;2.35;;;1.00;;
35977;SDS011;22056;0.000;0.000;2023-06-14T08:46:25;2.03;;;1.13;;
35977;SDS011;22056;0.000;0.000;2023-06-14T08:48:52;2.10;;;1.00;;
35977;SDS011;22056;0.000;0.000;2023-06-14T08:51:24;7.35;;;1.20;;
35977;SDS011;22056;0.000;0.000;2023-06-14T08:53:53;2.60;;;1.00;;
35977;SDS011;22056;0.000;0.000;2023-06-14T08:56:23;1.40;;;0.90;;
35977;SDS011;22056;0.000;0.000;2023-06-14T08:58:51;2.03;;;0.90;;
35977;SDS011;22056;0.000;0.000;2023-06-14T09:01:17;3.20;;;1.33;;
35977;SDS011;22056;0.000;0.000;2023-06-14T09:03:44;2.63;;;1.13;;
35977;SDS011;22056;0.000;0.000;2023-06-14T09:06:10;1.92;;;1.00;;
35977;SDS011;22056;0.000;0.000;2023-06-14T09:08:41;2.53;;;1.20;;
35977;SDS011;22056;0.000;0.000;2023-06-14T09:11:10;1.20;;;0.80;;
35977;SDS011;22056;0.000;0.000;2023-06-14T09:13:37;3.10;;;1.13;;
35977;SDS011;22056;0.000;0.000;2023-06-14T09:16:04;1.77;;;1.25;;
35977;SDS011;22056;0.000;0.000;2023-06-14T09:18:36;2.92;;;1.00;;
35977;SDS011;22056;0.000;0.000;2023-06-14T09:21:03;1.35;;;1.00;;
35977;SDS011;22056;0.000;0.000;2023-06-14T09:23:41;1.25;;;0.70;;
35977;SDS011;22056;0.000;0.000;2023-06-14T09:26:08;2.53;;;1.00;;
35977;SDS011;22056;0.000;0.000;2023-06-14T09:28:35;1.50;;;1.10;;
35977;SDS011;22056;0.000;0.000;2023-06-14T09:31:01;3.53;;;1.10;;
35977;SDS011;22056;0.000;0.000;2023-06-14T09:33:28;1.33;;;1.05;;
35977;SDS011;22056;0.000;0.000;2023-06-14T09:35:54;2.38;;;1.05;;
35977;SDS011;22056;0.000;0.000;2023-06-14T09:38:20;1.83;;;0.90;;
35977;SDS011;22056;0.000;0.000;2023-06-14T09:40:46;2.05;;;1.05;;
35977;SDS011;22056;0.000;0.000;2023-06-14T09:43:12;2.63;;;1.02;;
35977;SDS011;22056;0.000;0.000;2023-06-14T09:45:39;2.15;;;0.90;;
35977;SDS011;22056;0.000;0.000;2023-06-14T09:48:06;1.30;;;0.80;;
35977;SDS011;22056;0.000;0.000;2023-06-14T09:50:33;2.67;;;1.02;;
35977;SDS011;22056;0.000;0.000;2023-06-14T09:53:05;2.65;;;0.90;;
35977;SDS011;22056;0.000;0.000;2023-06-14T09:55:34;2.15;;;0.93;;
35977;SDS011;22056;0.000;0.000;2023-06-14T09:58:00;3.13;;;1.20;;
35977;SDS011;22056;0.000;0.000;2023-06-14T10:00:29;3.08;;;0.90;;
35977;SDS011;22056;0.000;0.000;2023-06-14T10:02:58;2.70;;;0.93;;
35977;SDS011;22056;0.000;0.000;2023-06-14T10:05:26;3.13;;;1.10;;
35977;SDS011;22056;0.000;0.000;2023-06-14T10:10:19;2.00;;;1.00;;
35977;SDS011;22056;0.000;0.000;2023-06-14T10:12:46;1.92;;;0.95;;
35977;SDS011;22056;0.000;0.000;2023-06-14T10:15:17;1.83;;;1.08;;
35977;SDS011;22056;0.000;0.000;2023-06-14T10:17:56;1.90;;;1.00;;
35977;SDS011;22056;0.000;0.000;2023-06-14T10:20:59;1.50;;;0.82;;
35977;SDS011;22056;0.000;0.000;2023-06-14T10:23:21;1.40;;;1.00;;
35977;SDS011;22056;0.000;0.000;2023-06-14T10:25:56;1.20;;;0.80;;
35977;SDS011;22056;0.000;0.000;2023-06-14T10:28:22;2.38;;;1.17;;
35977;SDS011;22056;0.000;0.000;2023-06-14T10:31:02;2.38;;;1.10;;
35977;SDS011;22056;0.000;0.000;2023-06-14T10:33:32;1.17;;;0.85;;
35977;SDS011;22056;0.000;0.000;2023-06-14T10:38:34;1.42;;;0.93;;
35977;SDS011;22056;0.000;0.000;2023-06-14T10:41:02;2.05;;;1.00;;
35977;SDS011;22056;0.000;0.000;2023-06-14T10:43:29;1.75;;;0.82;;
35977;SDS011;22056;0.000;0.000;2023-06-14T10:48:41;1.83;;;1.00;;
35977;SDS011;22056;0.000;0.000;2023-06-14T10:51:14;2.53;;;1.17;;
35977;SDS011;22056;0.000;0.000;2023-06-14T10:53:45;1.13;;;0.70;;
35977;SDS011;22056;0.000;0.000;2023-06-14T10:56:22;1.88;;;0.93;;
35977;SDS011;22056;0.000;0.000;2023-06-14T10:58:49;2.50;;;1.00;;
35977;SDS011;22056;0.000;0.000;2023-06-14T11:01:18;2.15;;;1.00;;
35977;SDS011;22056;0.000;0.000;2023-06-14T11:03:51;2.50;;;1.02;;
35977;SDS011;22056;0.000;0.000;2023-06-14T11:06:19;3.15;;;1.05;;
35977;SDS011;22056;0.000;0.000;2023-06-14T11:11:29;3.72;;;1.05;;
35977;SDS011;22056;0.000;0.000;2023-06-14T11:13:58;1.83;;;1.00;;
35977;SDS011;22056;0.000;0.000;2023-06-14T11:16:26;2.13;;;1.00;;
35977;SDS011;22056;0.000;0.000;2023-06-14T11:18:53;1.95;;;0.90;;
35977;SDS011;22056;0.000;0.000;2023-06-14T11:21:19;1.38;;;0.95;;
35977;SDS011;22056;0.000;0.000;2023-06-14T11:23:49;2.75;;;1.00;;
35977;SDS011;22056;0.000;0.000;2023-06-14T11:26:16;1.80;;;0.80;;
35977;SDS011;22056;0.000;0.000;2023-06-14T11:28:54;2.25;;;1.00;;
35977;SDS011;22056;0.000;0.000;2023-06-14T11:31:21;1.35;;;0.93;;
35977;SDS011;22056;0.000;0.000;2023-06-14T11:33:50;1.88;;;0.95;;
35977;SDS011;22056;0.000;0.000;2023-06-14T11:36:17;1.30;;;0.80;;
35977;SDS011;22056;0.000;0.000;2023-06-14T11:38:43;3.75;;;1.25;;
35977;SDS011;22056;0.000;0.000;2023-06-14T11:41:09;1.67;;;0.90;;
35977;SDS011;22056;0.000;0.000;2023-06-14T11:43:35;2.25;;;1.00;;
35977;SDS011;22056;0.000;0.000;2023-06-14T11:46:02;7.45;;;1.60;;
35977;SDS011;22056;0.000;0.000;2023-06-14T11:48:38;2.15;;;1.10;;
35977;SDS011;22056;0.000;0.000;2023-06-14T11:51:04;1.90;;;0.90;;
35977;SDS011;22056;0.000;0.000;2023-06-14T11:53:31;1.38;;;1.00;;
35977;SDS011;22056;0.000;0.000;2023-06-14T11:55:57;1.52;;;0.77;;
35977;SDS011;22056;0.000;0.000;2023-06-14T11:58:23;2.33;;;0.90;;
35977;SDS011;22056;0.000;0.000;2023-06-14T12:00:49;2.08;;;0.90;;
35977;SDS011;22056;0.000;0.000;2023-06-14T12:03:15;2.08;;;1.25;;
35977;SDS011;22056;0.000;0.000;2023-06-14T12:05:42;1.77;;;0.95;;
35977;SDS011;22056;0.000;0.000;2023-06-14T12:08:08;4.20;;;1.15;;
35977;SDS011;22056;0.000;0.000;2023-06-14T12:10:40;2.30;;;1.00;;
35977;SDS011;22056;0.000;0.000;2023-06-14T12:13:10;2.88;;;1.20;;
35977;SDS011;22056;0.000;0.000;2023-06-14T12:15:36;4.10;;;1.10;;
35977;SDS011;22056;0.000;0.000;2023-06-14T12:18:05;1.40;;;0.73;;
35977;SDS011;22056;0.000;0.000;2023-06-14T12:20:34;4.25;;;1.00;;
35977;SDS011;22056;0.000;0.000;2023-06-14T12:23:02;1.60;;;0.85;;
35977;SDS011;22056;0.000;0.000;2023-06-14T12:25:29;2.38;;;1.10;;
35977;SDS011;22056;0.000;0.000;2023-06-14T12:28:00;2.03;;;0.82;;
35977;SDS011;22056;0.000;0.000;2023-06-14T12:30:30;1.95;;;1.17;;
35977;SDS011;22056;0.000;0.000;2023-06-14T12:32:56;1.40;;;0.77;;
35977;SDS011;22056;0.000;0.000;2023-06-14T12:35:22;1.30;;;0.82;;
35977;SDS011;22056;0.000;0.000;2023-06-14T12:37:48;2.35;;;0.90;;
35977;SDS011;22056;0.000;0.000;2023-06-14T12:40:14;1.67;;;1.10;;
35977;SDS011;22056;0.000;0.000;2023-06-14T12:42:41;3.33;;;0.95;;
35977;SDS011;22056;0.000;0.000;2023-06-14T12:45:07;3.00;;;1.00;;
35977;SDS011;22056;0.000;0.000;2023-06-14T12:47:34;2.10;;;0.98;;
35977;SDS011;22056;0.000;0.000;2023-06-14T12:50:00;6.88;;;0.80;;
35977;SDS011;22056;0.000;0.000;2023-06-14T12:52:27;1.42;;;0.80;;
35977;SDS011;22056;0.000;0.000;2023-06-14T12:54:53;3.90;;;0.95;;
35977;SDS011;22056;0.000;0.000;2023-06-14T12:57:19;3.65;;;1.00;;
35977;SDS011;22056;0.000;0.000;2023-06-14T12:59:45;2.45;;;0.95;;
35977;SDS011;22056;0.000;0.000;2023-06-14T13:04:37;2.65;;;0.90;;
35977;SDS011;22056;0.000;0.000;2023-06-14T13:07:04;1.70;;;0.95;;
35977;SDS011;22056;0.000;0.000;2023-06-14T13:09:30;5.03;;;1.23;;
35977;SDS011;22056;0.000;0.000;2023-06-14T13:11:56;4.97;;;1.00;;
35977;SDS011;22056;0.000;0.000;2023-06-14T13:14:22;1.33;;;0.93;;
35977;SDS011;22056;0.000;0.000;2023-06-14T13:16:49;3.08;;;1.50;;
35977;SDS011;22056;0.000;0.000;2023-06-14T13:19:15;2.17;;;0.95;;
35977;SDS011;22056;0.000;0.000;2023-06-14T13:21:41;3.30;;;0.90;;
35977;SDS011;22056;0.000;0.000;2023-06-14T13:24:07;2.92;;;1.17;;
35977;SDS011;22056;0.000;0.000;2023-06-14T13:26:33;4.53;;;1.38;;
35977;SDS011;22056;0.000;0.000;2023-06-14T13:29:00;1.20;;;0.88;;
35977;SDS011;22056;0.000;0.000;2023-06-14T13:31:26;3.00;;;0.80;;
35977;SDS011;22056;0.000;0.000;2023-06-14T13:33:52;3.47;;;1.20;;
35977;SDS011;22056;0.000;0.000;2023-06-14T13:36:18;3.97;;;1.13;;
35977;SDS011;22056;0.000;0.000;2023-06-14T13:38:45;2.28;;;1.10;;
35977;SDS011;22056;0.000;0.000;2023-06-14T13:41:11;4.70;;;1.20;;
35977;SDS011;22056;0.000;0.000;2023-06-14T13:43:37;4.55;;;1.15;;
35977;SDS011;22056;0.000;0.000;2023-06-14T13:46:03;3.33;;;1.23;;
35977;SDS011;22056;0.000;0.000;2023-06-14T13:48:29;3.45;;;1.33;;
35977;SDS011;22056;0.000;0.000;2023-06-14T13:50:55;2.90;;;0.93;;
35977;SDS011;22056;0.000;0.000;2023-06-14T13:53:22;4.80;;;1.27;;
35977;SDS011;22056;0.000;0.000;2023-06-14T13:55:48;5.18;;;1.30;;
35977;SDS011;22056;0.000;0.000;2023-06-14T13:58:14;2.35;;;1.10;;
35977;SDS011;22056;0.000;0.000;2023-06-14T14:00:40;2.95;;;1.00;;
35977;SDS011;22056;0.000;0.000;2023-06-14T14:03:07;2.20;;;1.30;;
35977;SDS011;22056;0.000;0.000;2023-06-14T14:05:34;3.88;;;1.20;;
35977;SDS011;22056;0.000;0.000;2023-06-14T14:08:00;4.10;;;1.33;;
35977;SDS011;22056;0.000;0.000;2023-06-14T14:10:27;2.35;;;1.00;;
35977;SDS011;22056;0.000;0.000;2023-06-14T14:12:53;2.13;;;1.05;;
35977;SDS011;22056;0.000;0.000;2023-06-14T14:15:20;3.50;;;1.20;;
35977;SDS011;22056;0.000;0.000;2023-06-14T14:17:46;3.80;;;1.10;;
35977;SDS011;22056;0.000;0.000;2023-06-14T14:20:12;3.05;;;1.02;;
35977;SDS011;22056;0.000;0.000;2023-06-14T14:22:41;4.07;;;1.10;;
35977;SDS011;22056;0.000;0.000;2023-06-14T14:25:07;3.53;;;0.98;;
35977;SDS011;22056;0.000;0.000;2023-06-14T14:27:34;2.63;;;0.93;;
35977;SDS011;22056;0.000;0.000;2023-06-14T14:30:00;1.98;;;1.10;;
35977;SDS011;22056;0.000;0.000;2023-06-14T14:32:26;2.20;;;1.00;;
35977;SDS011;22056;0.000;0.000;2023-06-14T14:34:52;3.92;;;0.90;;
35977;SDS011;22056;0.000;0.000;2023-06-14T14:37:18;1.70;;;1.10;;
35977;SDS011;22056;0.000;0.000;2023-06-14T14:39:45;1.60;;;1.10;;
35977;SDS011;22056;0.000;0.000;2023-06-14T14:42:12;3.22;;;1.10;;
35977;SDS011;22056;0.000;0.000;2023-06-14T14:44:38;2.88;;;1.08;;
35977;SDS011;22056;0.000;0.000;2023-06-14T14:47:05;2.70;;;1.10;;
35977;SDS011;22056;0.000;0.000;2023-06-14T14:49:31;7.18;;;1.20;;
35977;SDS011;22056;0.000;0.000;2023-06-14T14:51:58;6.32;;;1.27;;
35977;SDS011;22056;0.000;0.000;2023-06-14T14:54:24;3.97;;;1.30;;
35977;SDS011;22056;0.000;0.000;2023-06-14T14:56:50;4.32;;;0.80;;
35977;SDS011;22056;0.000;0.000;2023-06-14T14:59:16;2.45;;;1.00;;
35977;SDS011;22056;0.000;0.000;2023-06-14T15:01:43;1.15;;;0.80;;
35977;SDS011;22056;0.000;0.000;2023-06-14T15:04:10;2.30;;;0.93;;
35977;SDS011;22056;0.000;0.000;2023-06-14T15:06:37;2.70;;;0.85;;
35977;SDS011;22056;0.000;0.000;2023-06-14T15:09:05;1.77;;;0.80;;
35977;SDS011;22056;0.000;0.000;2023-06-14T15:11:31;2.25;;;1.00;;
35977;SDS011;22056;0.000;0.000;2023-06-14T15:13:57;1.90;;;1.00;;
35977;SDS011;22056;0.000;0.000;2023-06-14T15:16:23;2.78;;;1.00;;